sensor_id;sensor_type;location;lat;lon;timestamp;temperature;humidity
55213;DHT22;41083;52.932;6.674;2023-02-01T00:01:54;6.30;99.90
55213;DHT22;41083;52.932;6.674;2023-02-01T00:04:20;6.30;99.90
55213;DHT22;41083;52.932;6.674;2023-02-01T00:06:46;6.30;99.90
55213;DHT22;41083;52.932;6.674;2023-02-01T00:09:12;6.30;99.90
55213;DHT22;41083;52.932;6.674;2023-02-01T00:11:38;6.40;99.90
55213;DHT22;41083;52.932;6.674;2023-02-01T00:14:04;6.40;99.90
55213;DHT22;41083;52.932;6.674;2023-02-01T00:16:31;6.30;99.90
55213;DHT22;41083;52.932;6.674;2023-02-01T00:19:07;6.30;99.90
55213;DHT22;41083;52.932;6.674;2023-02-01T00:21:33;6.40;99.90
55213;DHT22;41083;52.932;6.674;2023-02-01T00:23:59;6.40;99.90
55213;DHT22;41083;52.932;6.674;2023-02-01T00:26:41;6.40;99.90
55213;DHT22;41083;52.932;6.674;2023-02-01T00:29:11;6.40;99.90
55213;DHT22;41083;52.932;6.674;2023-02-01T00:31:38;6.40;99.90
55213;DHT22;41083;52.932;6.674;2023-02-01T00:34:04;6.40;99.90
55213;DHT22;41083;52.932;6.674;2023-02-01T00:36:30;6.40;99.90
55213;DHT22;41083;52.932;6.674;2023-02-01T00:38:56;6.40;99.90
55213;DHT22;41083;52.932;6.674;2023-02-01T00:41:22;6.40;99.90
55213;DHT22;41083;52.932;6.674;2023-02-01T00:43:48;6.40;99.90
55213;DHT22;41083;52.932;6.674;2023-02-01T00:46:16;6.40;99.90
55213;DHT22;41083;52.932;6.674;2023-02-01T00:48:42;6.40;99.90
55213;DHT22;41083;52.932;6.674;2023-02-01T00:51:12;6.40;99.90
55213;DHT22;41083;52.932;6.674;2023-02-01T00:53:38;6.40;99.90
55213;DHT22;41083;52.932;6.674;2023-02-01T00:56:04;6.40;99.90
55213;DHT22;41083;52.932;6.674;2023-02-01T00:58:30;6.40;99.90
55213;DHT22;41083;52.932;6.674;2023-02-01T01:01:06;6.40;99.90
55213;DHT22;41083;52.932;6.674;2023-02-01T01:03:34;6.40;99.90
55213;DHT22;41083;52.932;6.674;2023-02-01T01:06:04;6.40;99.90
55213;DHT22;41083;52.932;6.674;2023-02-01T01:08:29;6.50;99.90
55213;DHT22;41083;52.932;6.674;2023-02-01T01:10:55;6.50;99.90
55213;DHT22;41083;52.932;6.674;2023-02-01T01:13:21;6.50;99.90
55213;DHT22;41083;52.932;6.674;2023-02-01T01:15:46;6.50;99.90
55213;DHT22;41083;52.932;6.674;2023-02-01T01:18:12;6.50;99.90
55213;DHT22;41083;52.932;6.674;2023-02-01T01:20:39;6.50;99.90
55213;DHT22;41083;52.932;6.674;2023-02-01T01:23:06;6.50;99.90
55213;DHT22;41083;52.932;6.674;2023-02-01T01:25:31;6.50;99.90
55213;DHT22;41083;52.932;6.674;2023-02-01T01:27:57;6.50;99.90
55213;DHT22;41083;52.932;6.674;2023-02-01T01:30:23;6.50;99.90
55213;DHT22;41083;52.932;6.674;2023-02-01T01:32:49;6.50;99.90
55213;DHT22;41083;52.932;6.674;2023-02-01T01:35:15;6.50;99.90
55213;DHT22;41083;52.932;6.674;2023-02-01T01:37:40;6.50;99.90
55213;DHT22;41083;52.932;6.674;2023-02-01T01:40:07;6.50;99.90
55213;DHT22;41083;52.932;6.674;2023-02-01T01:42:38;6.50;99.90
55213;DHT22;41083;52.932;6.674;2023-02-01T01:47:43;6.60;99.90
55213;DHT22;41083;52.932;6.674;2023-02-01T01:50:14;6.60;99.90
55213;DHT22;41083;52.932;6.674;2023-02-01T01:52:43;6.60;99.90
55213;DHT22;41083;52.932;6.674;2023-02-01T01:55:13;6.60;99.90
55213;DHT22;41083;52.932;6.674;2023-02-01T01:57:41;6.60;99.90
55213;DHT22;41083;52.932;6.674;2023-02-01T02:00:14;6.60;99.90
55213;DHT22;41083;52.932;6.674;2023-02-01T02:02:44;6.50;99.90
55213;DHT22;41083;52.932;6.674;2023-02-01T02:05:12;6.50;99.90
55213;DHT22;41083;52.932;6.674;2023-02-01T02:07:43;6.50;99.90
55213;DHT22;41083;52.932;6.674;2023-02-01T02:10:11;6.50;99.90
55213;DHT22;41083;52.932;6.674;2023-02-01T02:12:39;6.50;99.90
55213;DHT22;41083;52.932;6.674;2023-02-01T02:15:06;6.40;99.90
55213;DHT22;41083;52.932;6.674;2023-02-01T02:17:36;6.40;99.90
55213;DHT22;41083;52.932;6.674;2023-02-01T02:20:30;6.40;99.90
55213;DHT22;41083;52.932;6.674;2023-02-01T02:26:33;6.40;99.90
55213;DHT22;41083;52.932;6.674;2023-02-01T02:34:27;6.40;99.90
55213;DHT22;41083;52.932;6.674;2023-02-01T02:39:39;6.30;99.90
55213;DHT22;41083;52.932;6.674;2023-02-01T02:42:18;6.30;99.90
55213;DHT22;41083;52.932;6.674;2023-02-01T02:45:08;6.30;99.90
55213;DHT22;41083;52.932;6.674;2023-02-01T02:48:04;6.20;99.90
55213;DHT22;41083;52.932;6.674;2023-02-01T02:50:46;6.20;99.90
55213;DHT22;41083;52.932;6.674;2023-02-01T02:56:32;6.30;99.90
55213;DHT22;41083;52.932;6.674;2023-02-01T02:59:20;6.30;99.90
55213;DHT22;41083;52.932;6.674;2023-02-01T03:02:05;6.30;99.90
55213;DHT22;41083;52.932;6.674;2023-02-01T03:04:54;6.20;99.90
55213;DHT22;41083;52.932;6.674;2023-02-01T03:13:14;6.20;99.90
55213;DHT22;41083;52.932;6.674;2023-02-01T03:18:17;6.20;99.90
55213;DHT22;41083;52.932;6.674;2023-02-01T03:20:46;6.20;99.90
55213;DHT22;41083;52.932;6.674;2023-02-01T03:23:16;6.20;99.90
55213;DHT22;41083;52.932;6.674;2023-02-01T03:25:43;6.30;99.90
55213;DHT22;41083;52.932;6.674;2023-02-01T03:28:10;6.30;99.90
55213;DHT22;41083;52.932;6.674;2023-02-01T03:30:38;6.30;99.90
55213;DHT22;41083;52.932;6.674;2023-02-01T03:33:11;6.30;99.90
55213;DHT22;41083;52.932;6.674;2023-02-01T03:36:11;6.30;99.90
55213;DHT22;41083;52.932;6.674;2023-02-01T03:38:43;6.40;99.90
55213;DHT22;41083;52.932;6.674;2023-02-01T03:41:47;6.30;99.90
55213;DHT22;41083;52.932;6.674;2023-02-01T03:49:46;6.30;99.90
55213;DHT22;41083;52.932;6.674;2023-02-01T03:52:16;6.30;99.90
55213;DHT22;41083;52.932;6.674;2023-02-01T03:54:44;6.30;99.90
55213;DHT22;41083;52.932;6.674;2023-02-01T03:57:13;6.30;99.90
55213;DHT22;41083;52.932;6.674;2023-02-01T03:59:41;6.30;99.90
55213;DHT22;41083;52.932;6.674;2023-02-01T04:02:07;6.30;99.90
55213;DHT22;41083;52.932;6.674;2023-02-01T04:04:34;6.30;99.90
55213;DHT22;41083;52.932;6.674;2023-02-01T04:07:00;6.30;99.90
55213;DHT22;41083;52.932;6.674;2023-02-01T04:09:26;6.40;99.90
55213;DHT22;41083;52.932;6.674;2023-02-01T04:11:52;6.40;99.90
55213;DHT22;41083;52.932;6.674;2023-02-01T04:14:17;6.40;99.90
55213;DHT22;41083;52.932;6.674;2023-02-01T04:16:43;6.40;99.90
55213;DHT22;41083;52.932;6.674;2023-02-01T04:19:09;6.40;99.90
55213;DHT22;41083;52.932;6.674;2023-02-01T04:21:34;6.40;99.90
55213;DHT22;41083;52.932;6.674;2023-02-01T04:24:00;6.30;99.90
55213;DHT22;41083;52.932;6.674;2023-02-01T04:26:26;6.30;99.90
55213;DHT22;41083;52.932;6.674;2023-02-01T04:28:51;6.30;99.90
55213;DHT22;41083;52.932;6.674;2023-02-01T04:31:18;6.30;99.90
55213;DHT22;41083;52.932;6.674;2023-02-01T04:33:54;6.20;99.90
55213;DHT22;41083;52.932;6.674;2023-02-01T04:36:23;6.20;99.90
55213;DHT22;41083;52.932;6.674;2023-02-01T04:38:52;6.20;99.90
55213;DHT22;41083;52.932;6.674;2023-02-01T04:41:19;6.20;99.90
55213;DHT22;41083;52.932;6.674;2023-02-01T04:43:48;6.20;99.90
55213;DHT22;41083;52.932;6.674;2023-02-01T04:46:14;6.20;99.90
55213;DHT22;41083;52.932;6.674;2023-02-01T04:48:41;6.20;99.90
55213;DHT22;41083;52.932;6.674;2023-02-01T04:51:07;6.30;99.90
55213;DHT22;41083;52.932;6.674;2023-02-01T04:53:33;6.30;99.90
55213;DHT22;41083;52.932;6.674;2023-02-01T04:55:58;6.30;99.90
55213;DHT22;41083;52.932;6.674;2023-02-01T04:58:24;6.30;99.90
55213;DHT22;41083;52.932;6.674;2023-02-01T05:00:50;6.30;99.90
55213;DHT22;41083;52.932;6.674;2023-02-01T05:03:16;6.30;99.90
55213;DHT22;41083;52.932;6.674;2023-02-01T05:05:42;6.30;99.90
55213;DHT22;41083;52.932;6.674;2023-02-01T05:08:08;6.30;99.90
55213;DHT22;41083;52.932;6.674;2023-02-01T05:10:33;6.40;99.90
55213;DHT22;41083;52.932;6.674;2023-02-01T05:12:59;6.40;99.90
55213;DHT22;41083;52.932;6.674;2023-02-01T05:15:43;6.40;99.90
55213;DHT22;41083;52.932;6.674;2023-02-01T05:18:09;6.40;99.90
55213;DHT22;41083;52.932;6.674;2023-02-01T05:20:34;6.40;99.90
55213;DHT22;41083;52.932;6.674;2023-02-01T05:23:00;6.40;99.90
55213;DHT22;41083;52.932;6.674;2023-02-01T05:25:26;6.40;99.90
55213;DHT22;41083;52.932;6.674;2023-02-01T05:27:53;6.40;99.90
55213;DHT22;41083;52.932;6.674;2023-02-01T05:30:19;6.40;99.90
55213;DHT22;41083;52.932;6.674;2023-02-01T05:32:44;6.40;99.90
55213;DHT22;41083;52.932;6.674;2023-02-01T05:35:10;6.50;99.90
55213;DHT22;41083;52.932;6.674;2023-02-01T05:37:35;6.50;99.90
55213;DHT22;41083;52.932;6.674;2023-02-01T05:40:01;6.50;99.90
55213;DHT22;41083;52.932;6.674;2023-02-01T05:42:27;6.50;99.90
55213;DHT22;41083;52.932;6.674;2023-02-01T05:44:52;6.50;99.90
55213;DHT22;41083;52.932;6.674;2023-02-01T05:47:18;6.50;99.90
55213;DHT22;41083;52.932;6.674;2023-02-01T05:49:45;6.50;99.90
55213;DHT22;41083;52.932;6.674;2023-02-01T05:52:11;6.50;99.90
55213;DHT22;41083;52.932;6.674;2023-02-01T05:54:36;6.50;99.90
55213;DHT22;41083;52.932;6.674;2023-02-01T05:57:02;6.50;99.90
55213;DHT22;41083;52.932;6.674;2023-02-01T05:59:27;6.50;99.90
55213;DHT22;41083;52.932;6.674;2023-02-01T06:01:53;6.50;99.90
55213;DHT22;41083;52.932;6.674;2023-02-01T06:04:19;6.50;99.90
55213;DHT22;41083;52.932;6.674;2023-02-01T06:06:44;6.50;99.90
55213;DHT22;41083;52.932;6.674;2023-02-01T06:09:10;6.60;99.90
55213;DHT22;41083;52.932;6.674;2023-02-01T06:11:36;6.60;99.90
55213;DHT22;41083;52.932;6.674;2023-02-01T06:14:01;6.60;99.90
55213;DHT22;41083;52.932;6.674;2023-02-01T06:16:27;6.60;99.90
55213;DHT22;41083;52.932;6.674;2023-02-01T06:18:53;6.60;99.90
55213;DHT22;41083;52.932;6.674;2023-02-01T06:21:19;6.60;99.90
55213;DHT22;41083;52.932;6.674;2023-02-01T06:23:53;6.60;99.90
55213;DHT22;41083;52.932;6.674;2023-02-01T06:26:19;6.60;99.90
55213;DHT22;41083;52.932;6.674;2023-02-01T06:28:45;6.60;99.90
55213;DHT22;41083;52.932;6.674;2023-02-01T06:31:11;6.60;99.90
55213;DHT22;41083;52.932;6.674;2023-02-01T06:33:37;6.70;99.90
55213;DHT22;41083;52.932;6.674;2023-02-01T06:36:05;6.60;99.90
55213;DHT22;41083;52.932;6.674;2023-02-01T06:38:31;6.60;99.90
55213;DHT22;41083;52.932;6.674;2023-02-01T06:41:00;6.60;99.90
55213;DHT22;41083;52.932;6.674;2023-02-01T06:43:26;6.50;99.90
55213;DHT22;41083;52.932;6.674;2023-02-01T06:45:52;6.60;99.90
55213;DHT22;41083;52.932;6.674;2023-02-01T06:48:19;6.60;99.90
55213;DHT22;41083;52.932;6.674;2023-02-01T06:50:44;6.50;99.90
55213;DHT22;41083;52.932;6.674;2023-02-01T06:53:10;6.50;99.90
55213;DHT22;41083;52.932;6.674;2023-02-01T06:55:36;6.50;99.90
55213;DHT22;41083;52.932;6.674;2023-02-01T06:58:01;6.50;99.90
55213;DHT22;41083;52.932;6.674;2023-02-01T07:00:28;6.60;99.90
55213;DHT22;41083;52.932;6.674;2023-02-01T07:02:54;6.50;99.90
55213;DHT22;41083;52.932;6.674;2023-02-01T07:05:20;6.50;99.90
55213;DHT22;41083;52.932;6.674;2023-02-01T07:07:46;6.50;99.90
55213;DHT22;41083;52.932;6.674;2023-02-01T07:10:12;6.50;99.90
55213;DHT22;41083;52.932;6.674;2023-02-01T07:12:38;6.50;99.90
55213;DHT22;41083;52.932;6.674;2023-02-01T07:15:04;6.50;99.90
55213;DHT22;41083;52.932;6.674;2023-02-01T07:17:30;6.50;99.90
55213;DHT22;41083;52.932;6.674;2023-02-01T07:19:56;6.50;99.90
55213;DHT22;41083;52.932;6.674;2023-02-01T07:22:24;6.50;99.90
55213;DHT22;41083;52.932;6.674;2023-02-01T07:24:49;6.50;99.90
55213;DHT22;41083;52.932;6.674;2023-02-01T07:27:15;6.50;99.90
55213;DHT22;41083;52.932;6.674;2023-02-01T07:29:41;6.50;99.90
55213;DHT22;41083;52.932;6.674;2023-02-01T07:32:06;6.50;99.90
55213;DHT22;41083;52.932;6.674;2023-02-01T07:34:32;6.60;99.90
55213;DHT22;41083;52.932;6.674;2023-02-01T07:36:58;6.60;99.90
55213;DHT22;41083;52.932;6.674;2023-02-01T07:39:24;6.60;99.90
55213;DHT22;41083;52.932;6.674;2023-02-01T07:41:50;6.60;99.90
55213;DHT22;41083;52.932;6.674;2023-02-01T07:44:15;6.60;99.90
55213;DHT22;41083;52.932;6.674;2023-02-01T07:46:48;6.70;99.90
55213;DHT22;41083;52.932;6.674;2023-02-01T07:49:13;6.70;99.90
55213;DHT22;41083;52.932;6.674;2023-02-01T07:51:39;6.70;99.90
55213;DHT22;41083;52.932;6.674;2023-02-01T07:54:05;6.70;99.90
55213;DHT22;41083;52.932;6.674;2023-02-01T07:56:30;6.70;99.90
55213;DHT22;41083;52.932;6.674;2023-02-01T07:58:56;6.70;99.90
55213;DHT22;41083;52.932;6.674;2023-02-01T08:01:24;6.70;99.90
55213;DHT22;41083;52.932;6.674;2023-02-01T08:03:58;6.70;99.90
55213;DHT22;41083;52.932;6.674;2023-02-01T08:06:31;6.70;99.90
55213;DHT22;41083;52.932;6.674;2023-02-01T08:09:01;6.70;99.90
55213;DHT22;41083;52.932;6.674;2023-02-01T08:11:29;6.70;99.90
55213;DHT22;41083;52.932;6.674;2023-02-01T08:14:02;6.70;99.90
55213;DHT22;41083;52.932;6.674;2023-02-01T08:16:34;6.60;99.90
55213;DHT22;41083;52.932;6.674;2023-02-01T08:19:00;6.60;99.90
55213;DHT22;41083;52.932;6.674;2023-02-01T08:21:31;6.70;99.90
55213;DHT22;41083;52.932;6.674;2023-02-01T08:24:10;6.70;99.90
55213;DHT22;41083;52.932;6.674;2023-02-01T08:26:36;6.70;99.90
55213;DHT22;41083;52.932;6.674;2023-02-01T08:29:04;6.70;99.90
55213;DHT22;41083;52.932;6.674;2023-02-01T08:31:31;6.70;99.90
55213;DHT22;41083;52.932;6.674;2023-02-01T08:33:59;6.70;99.90
55213;DHT22;41083;52.932;6.674;2023-02-01T08:36:27;6.70;99.90
55213;DHT22;41083;52.932;6.674;2023-02-01T08:38:53;6.70;99.90
55213;DHT22;41083;52.932;6.674;2023-02-01T08:41:22;6.70;99.90
55213;DHT22;41083;52.932;6.674;2023-02-01T08:43:48;6.70;99.90
55213;DHT22;41083;52.932;6.674;2023-02-01T08:46:14;6.70;99.90
55213;DHT22;41083;52.932;6.674;2023-02-01T08:48:40;6.70;99.90
55213;DHT22;41083;52.932;6.674;2023-02-01T08:51:13;6.70;99.90
55213;DHT22;41083;52.932;6.674;2023-02-01T08:53:40;6.80;99.90
55213;DHT22;41083;52.932;6.674;2023-02-01T08:56:07;6.80;99.90
55213;DHT22;41083;52.932;6.674;2023-02-01T08:58:33;6.70;99.90
55213;DHT22;41083;52.932;6.674;2023-02-01T09:01:09;6.80;99.90
55213;DHT22;41083;52.932;6.674;2023-02-01T09:03:34;6.80;99.90
55213;DHT22;41083;52.932;6.674;2023-02-01T09:06:01;6.80;99.90
55213;DHT22;41083;52.932;6.674;2023-02-01T09:08:27;6.80;99.90
55213;DHT22;41083;52.932;6.674;2023-02-01T09:10:53;6.80;99.90
55213;DHT22;41083;52.932;6.674;2023-02-01T09:13:19;6.80;99.90
55213;DHT22;41083;52.932;6.674;2023-02-01T09:15:45;6.80;99.90
55213;DHT22;41083;52.932;6.674;2023-02-01T09:18:10;6.80;99.90
55213;DHT22;41083;52.932;6.674;2023-02-01T09:20:37;6.80;99.90
55213;DHT22;41083;52.932;6.674;2023-02-01T09:23:02;6.90;99.90
55213;DHT22;41083;52.932;6.674;2023-02-01T09:25:28;6.90;99.90
55213;DHT22;41083;52.932;6.674;2023-02-01T09:27:54;6.90;99.90
55213;DHT22;41083;52.932;6.674;2023-02-01T09:30:19;6.90;99.90
55213;DHT22;41083;52.932;6.674;2023-02-01T09:32:45;6.80;99.90
55213;DHT22;41083;52.932;6.674;2023-02-01T09:35:11;6.90;99.90
55213;DHT22;41083;52.932;6.674;2023-02-01T09:37:36;6.90;99.90
55213;DHT22;41083;52.932;6.674;2023-02-01T09:40:03;6.90;99.90
55213;DHT22;41083;52.932;6.674;2023-02-01T09:42:48;6.90;99.90
55213;DHT22;41083;52.932;6.674;2023-02-01T09:47:49;6.90;99.90
55213;DHT22;41083;52.932;6.674;2023-02-01T09:50:21;6.90;99.90
55213;DHT22;41083;52.932;6.674;2023-02-01T09:53:02;6.90;99.90
55213;DHT22;41083;52.932;6.674;2023-02-01T09:55:39;6.80;99.90
55213;DHT22;41083;52.932;6.674;2023-02-01T10:00:58;6.80;99.90
55213;DHT22;41083;52.932;6.674;2023-02-01T10:03:29;6.80;99.90
55213;DHT22;41083;52.932;6.674;2023-02-01T10:06:10;6.80;99.90
55213;DHT22;41083;52.932;6.674;2023-02-01T10:08:46;6.70;99.90
55213;DHT22;41083;52.932;6.674;2023-02-01T10:14:53;6.70;99.90
55213;DHT22;41083;52.932;6.674;2023-02-01T10:21:00;6.60;99.90
55213;DHT22;41083;52.932;6.674;2023-02-01T10:28:36;6.50;99.90
55213;DHT22;41083;52.932;6.674;2023-02-01T10:31:03;6.50;99.90
55213;DHT22;41083;52.932;6.674;2023-02-01T10:33:38;6.50;99.90
55213;DHT22;41083;52.932;6.674;2023-02-01T10:38:34;6.60;99.90
55213;DHT22;41083;52.932;6.674;2023-02-01T10:43:38;6.60;99.90
55213;DHT22;41083;52.932;6.674;2023-02-01T10:46:04;6.60;99.90
55213;DHT22;41083;52.932;6.674;2023-02-01T10:48:32;6.60;99.90
55213;DHT22;41083;52.932;6.674;2023-02-01T10:51:28;6.60;99.90
55213;DHT22;41083;52.932;6.674;2023-02-01T10:54:11;6.60;99.90
55213;DHT22;41083;52.932;6.674;2023-02-01T10:56:38;6.60;99.90
55213;DHT22;41083;52.932;6.674;2023-02-01T10:59:11;6.60;99.90
55213;DHT22;41083;52.932;6.674;2023-02-01T11:01:41;6.70;99.90
55213;DHT22;41083;52.932;6.674;2023-02-01T11:04:10;6.70;99.90
55213;DHT22;41083;52.932;6.674;2023-02-01T11:06:41;6.80;99.90
55213;DHT22;41083;52.932;6.674;2023-02-01T11:14:19;6.80;99.90
55213;DHT22;41083;52.932;6.674;2023-02-01T11:16:49;6.90;99.90
55213;DHT22;41083;52.932;6.674;2023-02-01T11:19:16;6.90;99.90
55213;DHT22;41083;52.932;6.674;2023-02-01T11:21:43;6.90;99.90
55213;DHT22;41083;52.932;6.674;2023-02-01T11:24:34;6.90;99.90
55213;DHT22;41083;52.932;6.674;2023-02-01T11:27:03;6.90;99.90
55213;DHT22;41083;52.932;6.674;2023-02-01T11:29:36;6.90;99.90
55213;DHT22;41083;52.932;6.674;2023-02-01T11:32:03;7.00;99.90
55213;DHT22;41083;52.932;6.674;2023-02-01T11:34:37;7.00;99.90
55213;DHT22;41083;52.932;6.674;2023-02-01T11:37:03;7.00;99.90
55213;DHT22;41083;52.932;6.674;2023-02-01T11:39:34;7.00;99.90
55213;DHT22;41083;52.932;6.674;2023-02-01T11:42:01;7.10;99.90
55213;DHT22;41083;52.932;6.674;2023-02-01T11:44:39;7.20;99.90
55213;DHT22;41083;52.932;6.674;2023-02-01T11:49:48;7.20;99.90
55213;DHT22;41083;52.932;6.674;2023-02-01T11:54:59;7.10;99.90
55213;DHT22;41083;52.932;6.674;2023-02-01T11:57:50;7.00;99.90
55213;DHT22;41083;52.932;6.674;2023-02-01T12:05:50;7.00;99.90
55213;DHT22;41083;52.932;6.674;2023-02-01T12:08:45;7.00;99.90
55213;DHT22;41083;52.932;6.674;2023-02-01T12:11:33;7.00;99.90
55213;DHT22;41083;52.932;6.674;2023-02-01T12:17:08;7.10;99.90
55213;DHT22;41083;52.932;6.674;2023-02-01T12:30:39;7.30;99.90
55213;DHT22;41083;52.932;6.674;2023-02-01T12:36:16;7.30;99.90
55213;DHT22;41083;52.932;6.674;2023-02-01T12:39:05;7.30;99.90
55213;DHT22;41083;52.932;6.674;2023-02-01T12:41:51;7.30;99.90
55213;DHT22;41083;52.932;6.674;2023-02-01T12:50:17;7.50;99.90
55213;DHT22;41083;52.932;6.674;2023-02-01T12:52:52;7.50;99.90
55213;DHT22;41083;52.932;6.674;2023-02-01T12:55:48;7.60;99.90
55213;DHT22;41083;52.932;6.674;2023-02-01T13:03:44;7.70;99.90
55213;DHT22;41083;52.932;6.674;2023-02-01T13:06:29;7.70;99.90
55213;DHT22;41083;52.932;6.674;2023-02-01T13:09:18;7.60;99.90
55213;DHT22;41083;52.932;6.674;2023-02-01T13:11:46;7.60;99.90
55213;DHT22;41083;52.932;6.674;2023-02-01T13:14:33;7.60;99.90
55213;DHT22;41083;52.932;6.674;2023-02-01T13:17:29;7.60;99.90
55213;DHT22;41083;52.932;6.674;2023-02-01T13:20:09;7.70;99.90
55213;DHT22;41083;52.932;6.674;2023-02-01T13:22:45;7.70;99.90
55213;DHT22;41083;52.932;6.674;2023-02-01T13:25:19;7.70;99.90
55213;DHT22;41083;52.932;6.674;2023-02-01T13:27:47;7.80;99.90
55213;DHT22;41083;52.932;6.674;2023-02-01T13:44:08;7.70;99.90
55213;DHT22;41083;52.932;6.674;2023-02-01T13:46:44;7.70;99.90
55213;DHT22;41083;52.932;6.674;2023-02-01T13:49:32;7.70;99.90
55213;DHT22;41083;52.932;6.674;2023-02-01T13:52:02;7.70;99.90
55213;DHT22;41083;52.932;6.674;2023-02-01T13:54:34;7.70;99.90
55213;DHT22;41083;52.932;6.674;2023-02-01T13:57:03;7.70;99.90
55213;DHT22;41083;52.932;6.674;2023-02-01T13:59:53;7.70;99.90
55213;DHT22;41083;52.932;6.674;2023-02-01T14:05:02;7.70;99.90
55213;DHT22;41083;52.932;6.674;2023-02-01T14:07:28;7.70;99.90
55213;DHT22;41083;52.932;6.674;2023-02-01T14:09:54;7.70;99.90
55213;DHT22;41083;52.932;6.674;2023-02-01T14:15:26;7.80;99.90
55213;DHT22;41083;52.932;6.674;2023-02-01T14:17:52;7.80;99.90
55213;DHT22;41083;52.932;6.674;2023-02-01T14:20:39;7.90;99.90
55213;DHT22;41083;52.932;6.674;2023-02-01T14:23:13;7.90;99.90
55213;DHT22;41083;52.932;6.674;2023-02-01T14:25:40;7.90;99.90
55213;DHT22;41083;52.932;6.674;2023-02-01T14:28:24;7.90;99.90
55213;DHT22;41083;52.932;6.674;2023-02-01T14:30:53;7.90;99.90
55213;DHT22;41083;52.932;6.674;2023-02-01T14:33:25;7.90;99.90
55213;DHT22;41083;52.932;6.674;2023-02-01T14:36:06;7.90;99.90
55213;DHT22;41083;52.932;6.674;2023-02-01T14:38:34;7.90;99.90
55213;DHT22;41083;52.932;6.674;2023-02-01T14:49:32;7.80;99.90
55213;DHT22;41083;52.932;6.674;2023-02-01T14:51:59;7.80;99.90
55213;DHT22;41083;52.932;6.674;2023-02-01T14:54:27;7.80;99.90
55213;DHT22;41083;52.932;6.674;2023-02-01T14:56:54;7.80;99.90
55213;DHT22;41083;52.932;6.674;2023-02-01T14:59:22;7.70;99.90
55213;DHT22;41083;52.932;6.674;2023-02-01T15:01:52;7.70;99.90
55213;DHT22;41083;52.932;6.674;2023-02-01T15:04:19;7.60;99.90
55213;DHT22;41083;52.932;6.674;2023-02-01T15:06:58;7.60;99.90
55213;DHT22;41083;52.932;6.674;2023-02-01T15:09:36;7.60;99.90
55213;DHT22;41083;52.932;6.674;2023-02-01T15:14:35;7.50;99.90
55213;DHT22;41083;52.932;6.674;2023-02-01T15:17:02;7.50;99.90
55213;DHT22;41083;52.932;6.674;2023-02-01T15:19:29;7.50;99.90
55213;DHT22;41083;52.932;6.674;2023-02-01T15:21:58;7.50;99.90
55213;DHT22;41083;52.932;6.674;2023-02-01T15:24:26;7.50;99.90
55213;DHT22;41083;52.932;6.674;2023-02-01T15:26:53;7.50;99.90
55213;DHT22;41083;52.932;6.674;2023-02-01T15:29:21;7.50;99.90
55213;DHT22;41083;52.932;6.674;2023-02-01T15:31:51;7.50;99.90
55213;DHT22;41083;52.932;6.674;2023-02-01T15:34:18;7.50;99.90
55213;DHT22;41083;52.932;6.674;2023-02-01T15:36:44;7.50;99.90
55213;DHT22;41083;52.932;6.674;2023-02-01T15:39:24;7.40;99.90
55213;DHT22;41083;52.932;6.674;2023-02-01T15:41:55;7.50;99.90
55213;DHT22;41083;52.932;6.674;2023-02-01T15:44:28;7.50;99.90
55213;DHT22;41083;52.932;6.674;2023-02-01T15:46:56;7.50;99.90
55213;DHT22;41083;52.932;6.674;2023-02-01T15:49:30;7.50;99.90
55213;DHT22;41083;52.932;6.674;2023-02-01T15:51:59;7.50;99.90
55213;DHT22;41083;52.932;6.674;2023-02-01T15:57:30;7.50;99.90
55213;DHT22;41083;52.932;6.674;2023-02-01T16:00:24;7.50;99.90
55213;DHT22;41083;52.932;6.674;2023-02-01T16:02:58;7.50;99.90
55213;DHT22;41083;52.932;6.674;2023-02-01T16:05:35;7.60;99.90
55213;DHT22;41083;52.932;6.674;2023-02-01T16:08:14;7.60;99.90
55213;DHT22;41083;52.932;6.674;2023-02-01T16:10:46;7.60;99.90
55213;DHT22;41083;52.932;6.674;2023-02-01T16:13:13;7.60;99.90
55213;DHT22;41083;52.932;6.674;2023-02-01T16:15:39;7.50;99.90
55213;DHT22;41083;52.932;6.674;2023-02-01T16:18:06;7.50;99.90
55213;DHT22;41083;52.932;6.674;2023-02-01T16:20:34;7.50;99.90
55213;DHT22;41083;52.932;6.674;2023-02-01T16:23:01;7.50;99.90
55213;DHT22;41083;52.932;6.674;2023-02-01T16:25:27;7.40;99.90
55213;DHT22;41083;52.932;6.674;2023-02-01T16:27:53;7.50;99.90
55213;DHT22;41083;52.932;6.674;2023-02-01T16:30:18;7.50;99.90
55213;DHT22;41083;52.932;6.674;2023-02-01T16:32:55;7.50;99.90
55213;DHT22;41083;52.932;6.674;2023-02-01T16:35:34;7.50;99.90
55213;DHT22;41083;52.932;6.674;2023-02-01T16:38:15;7.40;99.90
55213;DHT22;41083;52.932;6.674;2023-02-01T16:40:45;7.40;99.90
55213;DHT22;41083;52.932;6.674;2023-02-01T16:43:20;7.30;99.90
55213;DHT22;41083;52.932;6.674;2023-02-01T16:45:48;7.40;99.90
55213;DHT22;41083;52.932;6.674;2023-02-01T16:48:26;7.30;99.90
55213;DHT22;41083;52.932;6.674;2023-02-01T16:50:59;7.30;99.90
55213;DHT22;41083;52.932;6.674;2023-02-01T16:53:26;7.30;99.90
55213;DHT22;41083;52.932;6.674;2023-02-01T16:55:53;7.20;99.90
55213;DHT22;41083;52.932;6.674;2023-02-01T16:58:20;7.20;99.90
55213;DHT22;41083;52.932;6.674;2023-02-01T17:00:47;7.20;99.90
55213;DHT22;41083;52.932;6.674;2023-02-01T17:03:13;7.20;99.90
55213;DHT22;41083;52.932;6.674;2023-02-01T17:05:44;7.10;99.90
55213;DHT22;41083;52.932;6.674;2023-02-01T17:08:13;7.10;99.90
55213;DHT22;41083;52.932;6.674;2023-02-01T17:10:41;7.10;99.90
55213;DHT22;41083;52.932;6.674;2023-02-01T17:13:12;7.00;99.90
55213;DHT22;41083;52.932;6.674;2023-02-01T17:15:38;7.00;99.90
55213;DHT22;41083;52.932;6.674;2023-02-01T17:18:05;7.00;99.90
55213;DHT22;41083;52.932;6.674;2023-02-01T17:20:32;7.00;99.90
55213;DHT22;41083;52.932;6.674;2023-02-01T17:22:58;7.00;99.90
55213;DHT22;41083;52.932;6.674;2023-02-01T17:25:24;6.90;99.90
55213;DHT22;41083;52.932;6.674;2023-02-01T17:27:51;6.90;99.90
55213;DHT22;41083;52.932;6.674;2023-02-01T17:30:17;6.90;99.90
55213;DHT22;41083;52.932;6.674;2023-02-01T17:32:43;6.90;99.90
55213;DHT22;41083;52.932;6.674;2023-02-01T17:35:23;6.90;99.90
55213;DHT22;41083;52.932;6.674;2023-02-01T17:37:50;6.90;99.90
55213;DHT22;41083;52.932;6.674;2023-02-01T17:40:16;6.80;99.90
55213;DHT22;41083;52.932;6.674;2023-02-01T17:42:42;6.80;99.90
55213;DHT22;41083;52.932;6.674;2023-02-01T17:45:34;6.80;99.90
55213;DHT22;41083;52.932;6.674;2023-02-01T17:48:05;6.80;99.90
55213;DHT22;41083;52.932;6.674;2023-02-01T17:50:34;6.80;99.90
55213;DHT22;41083;52.932;6.674;2023-02-01T17:53:00;6.80;99.90
55213;DHT22;41083;52.932;6.674;2023-02-01T17:55:27;6.80;99.90
55213;DHT22;41083;52.932;6.674;2023-02-01T17:57:53;6.80;99.90
55213;DHT22;41083;52.932;6.674;2023-02-01T18:00:19;6.80;99.90
55213;DHT22;41083;52.932;6.674;2023-02-01T18:02:46;6.80;99.90
55213;DHT22;41083;52.932;6.674;2023-02-01T18:05:19;6.70;99.90
55213;DHT22;41083;52.932;6.674;2023-02-01T18:07:45;6.70;99.90
55213;DHT22;41083;52.932;6.674;2023-02-01T18:10:11;6.70;99.90
55213;DHT22;41083;52.932;6.674;2023-02-01T18:12:37;6.70;99.90
55213;DHT22;41083;52.932;6.674;2023-02-01T18:17:39;6.70;99.90